Time;durP1;ratioP1;P1;durP2;ratioP2;P2;SDS_P1;SDS_P2;PMS_P1;PMS_P2;Temp;Humidity;BMP_temperature;BMP_pressure;BME280_temperature;BME280_humidity;BME280_pressure;Samples;Min_cycle;Max_cycle;Signal;HPM_P1;HPM_P2
2023/08/14 00:00:19;;;;;;;193.93;62.80;;;;;;;;;;5074202;28;20584;-56
2023/08/14 00:02:45;;;;;;;193.77;61.10;;;;;;;;;;5074509;28;20442;-55
2023/08/14 00:05:11;;;;;;;191.87;59.30;;;;;;;;;;5074368;28;20461;-55
2023/08/14 00:07:37;;;;;;;190.03;57.73;;;;;;;;;;5074274;28;20414;-55
2023/08/14 00:10:03;;;;;;;192.43;60.93;;;;;;;;;;5070693;28;20431;-55
2023/08/14 00:12:29;;;;;;;192.87;59.90;;;;;;;;;;5081053;28;20432;-55
2023/08/14 00:14:55;;;;;;;193.80;62.07;;;;;;;;;;5078350;28;20505;-54
2023/08/14 00:17:21;;;;;;;193.27;60.73;;;;;;;;;;5076883;28;20414;-55
2023/08/14 00:19:47;;;;;;;196.77;64.53;;;;;;;;;;5070286;28;20410;-55
2023/08/14 00:22:13;;;;;;;195.43;64.43;;;;;;;;;;5073754;28;20462;-55
2023/08/14 00:24:39;;;;;;;192.63;60.63;;;;;;;;;;5073607;28;20422;-53
2023/08/14 00:27:05;;;;;;;189.00;57.67;;;;;;;;;;5077920;28;20407;-55
2023/08/14 00:29:31;;;;;;;193.27;62.07;;;;;;;;;;5074651;28;20418;-54
2023/08/14 00:31:56;;;;;;;192.40;62.50;;;;;;;;;;5073667;28;20785;-54
2023/08/14 00:34:22;;;;;;;190.03;58.70;;;;;;;;;;5073759;28;20430;-55
2023/08/14 00:36:48;;;;;;;188.47;57.17;;;;;;;;;;5073805;28;20419;-55
2023/08/14 00:39:15;;;;;;;189.17;57.10;;;;;;;;;;5073749;28;20421;-54
2023/08/14 00:41:40;;;;;;;189.70;57.90;;;;;;;;;;5073225;28;20468;-56
2023/08/14 00:44:07;;;;;;;194.97;58.23;;;;;;;;;;5073998;28;20827;-55
2023/08/14 00:46:33;;;;;;;197.10;62.83;;;;;;;;;;5073647;28;20407;-55
2023/08/14 00:48:59;;;;;;;197.73;62.83;;;;;;;;;;5073733;28;20407;-55
2023/08/14 00:51:25;;;;;;;196.37;61.03;;;;;;;;;;5073063;28;20449;-55
2023/08/14 00:53:52;;;;;;;195.47;59.53;;;;;;;;;;5073558;28;20418;-55
2023/08/14 00:56:19;;;;;;;194.57;59.53;;;;;;;;;;5073296;28;20513;-55
2023/08/14 00:58:45;;;;;;;196.63;61.97;;;;;;;;;;5073430;28;20434;-54
2023/08/14 01:01:11;;;;;;;193.27;59.67;;;;;;;;;;5072486;28;20562;-48
2023/08/14 01:03:37;;;;;;;198.13;63.57;;;;;;;;;;5073514;28;20397;-49
2023/08/14 01:06:03;;;;;;;196.27;60.93;;;;;;;;;;5072846;28;20424;-50
2023/08/14 01:08:29;;;;;;;189.23;62.50;;;;;;;;;;5072688;28;20894;-52
2023/08/14 01:10:55;;;;;;;184.30;57.40;;;;;;;;;;5072758;28;20795;-51
2023/08/14 01:13:30;;;;;;;182.77;58.63;;;;;;;;;;5072999;28;20421;-51
2023/08/14 01:15:57;;;;;;;181.77;59.87;;;;;;;;;;5073089;28;20503;-51
2023/08/14 01:18:24;;;;;;;184.07;60.60;;;;;;;;;;5072921;28;20926;-52
2023/08/14 01:20:59;;;;;;;178.90;57.87;;;;;;;;;;5072520;28;20466;-54
2023/08/14 01:23:41;;;;;;;182.77;58.47;;;;;;;;;;5072605;28;20775;-55
2023/08/14 01:26:07;;;;;;;178.77;55.33;;;;;;;;;;5072982;28;20656;-51
2023/08/14 01:28:33;;;;;;;185.73;60.07;;;;;;;;;;5072820;28;20890;-53
2023/08/14 01:30:59;;;;;;;177.80;54.97;;;;;;;;;;5072476;28;20437;-50
2023/08/14 01:33:25;;;;;;;178.30;56.00;;;;;;;;;;5072599;28;20416;-51
2023/08/14 01:36:05;;;;;;;181.27;58.07;;;;;;;;;;5072243;28;20918;-52
2023/08/14 01:38:31;;;;;;;187.97;62.93;;;;;;;;;;5072819;28;20462;-52
2023/08/14 01:41:04;;;;;;;184.00;59.13;;;;;;;;;;5072275;28;20505;-51
2023/08/14 01:43:31;;;;;;;189.40;62.83;;;;;;;;;;5072436;28;20419;-51
2023/08/14 01:45:58;;;;;;;183.40;57.77;;;;;;;;;;5072591;28;20422;-51
2023/08/14 01:48:24;;;;;;;182.87;57.37;;;;;;;;;;5072991;28;20409;-56
2023/08/14 01:50:51;;;;;;;185.30;64.17;;;;;;;;;;5065399;28;20434;-56
2023/08/14 01:53:18;;;;;;;178.10;55.20;;;;;;;;;;5072344;28;20425;-56
2023/08/14 01:55:44;;;;;;;184.30;62.20;;;;;;;;;;5072274;28;20413;-55
2023/08/14 01:58:10;;;;;;;187.13;62.53;;;;;;;;;;5072361;28;20429;-55
2023/08/14 02:00:37;;;;;;;183.90;57.90;;;;;;;;;;5071818;28;20461;-55
2023/08/14 02:03:03;;;;;;;180.77;56.73;;;;;;;;;;5072012;28;20419;-57
2023/08/14 02:05:29;;;;;;;182.13;58.60;;;;;;;;;;5071982;28;20914;-56
2023/08/14 02:07:55;;;;;;;183.10;58.90;;;;;;;;;;5072108;28;20441;-54
2023/08/14 02:10:21;;;;;;;185.10;60.83;;;;;;;;;;5071789;28;20452;-54
2023/08/14 02:12:47;;;;;;;185.00;60.50;;;;;;;;;;5071947;28;20960;-53
2023/08/14 02:15:13;;;;;;;180.57;58.60;;;;;;;;;;5071987;28;20429;-56
2023/08/14 02:17:39;;;;;;;179.47;55.70;;;;;;;;;;5072252;28;20405;-56
2023/08/14 02:20:05;;;;;;;181.47;57.17;;;;;;;;;;5071607;28;20856;-56
2023/08/14 02:22:31;;;;;;;185.77;61.40;;;;;;;;;;5071663;28;20434;-56
2023/08/14 02:24:57;;;;;;;181.80;56.27;;;;;;;;;;5071787;28;20417;-56
2023/08/14 02:27:23;;;;;;;186.03;60.57;;;;;;;;;;5071858;28;20527;-56
2023/08/14 02:29:49;;;;;;;188.97;62.93;;;;;;;;;;5071596;28;20780;-56
2023/08/14 02:32:15;;;;;;;185.63;59.27;;;;;;;;;;5071449;28;20441;-56
2023/08/14 02:34:45;;;;;;;187.13;59.93;;;;;;;;;;5071681;28;21003;-56
2023/08/14 02:37:12;;;;;;;185.87;57.93;;;;;;;;;;5071732;28;20416;-54
2023/08/14 02:39:38;;;;;;;186.27;59.27;;;;;;;;;;5071477;28;20555;-55
2023/08/14 02:42:04;;;;;;;188.20;60.37;;;;;;;;;;5070160;28;20900;-56
2023/08/14 02:44:30;;;;;;;186.07;59.27;;;;;;;;;;5071433;28;20408;-55
2023/08/14 02:46:57;;;;;;;185.47;57.87;;;;;;;;;;5074069;28;20903;-56
2023/08/14 02:49:23;;;;;;;186.93;59.67;;;;;;;;;;5071460;28;20428;-56
2023/08/14 02:51:48;;;;;;;188.57;62.07;;;;;;;;;;5071227;28;20456;-55
2023/08/14 02:54:15;;;;;;;188.23;61.10;;;;;;;;;;5071726;28;20427;-54
2023/08/14 02:56:40;;;;;;;185.50;60.20;;;;;;;;;;5071597;28;20702;-56
2023/08/14 02:59:06;;;;;;;199.13;60.50;;;;;;;;;;5071420;28;20854;-59
2023/08/14 03:01:32;;;;;;;189.70;61.50;;;;;;;;;;5071138;28;20994;-57
2023/08/14 03:03:58;;;;;;;188.77;61.00;;;;;;;;;;5071501;28;20854;-57
2023/08/14 03:06:24;;;;;;;186.60;60.87;;;;;;;;;;5071323;28;20491;-57
2023/08/14 03:08:50;;;;;;;186.27;59.57;;;;;;;;;;5071495;28;20417;-56
2023/08/14 03:11:16;;;;;;;186.17;59.47;;;;;;;;;;5071070;28;20511;-55
2023/08/14 03:13:43;;;;;;;187.07;60.17;;;;;;;;;;5071231;28;20416;-55
2023/08/14 03:16:09;;;;;;;183.90;57.37;;;;;;;;;;5071270;28;20423;-56
2023/08/14 03:18:35;;;;;;;184.87;58.53;;;;;;;;;;5071088;28;20436;-56
2023/08/14 03:21:01;;;;;;;185.37;60.17;;;;;;;;;;5070848;28;20471;-57
2023/08/14 03:23:27;;;;;;;183.77;57.07;;;;;;;;;;5071121;28;20402;-57
2023/08/14 03:25:53;;;;;;;184.67;57.97;;;;;;;;;;5071232;28;20413;-57
2023/08/14 03:28:18;;;;;;;185.60;59.10;;;;;;;;;;5071080;28;20421;-57
2023/08/14 03:30:44;;;;;;;185.37;58.10;;;;;;;;;;5070888;28;20437;-56
2023/08/14 03:33:10;;;;;;;186.47;60.40;;;;;;;;;;5071070;28;20412;-57
2023/08/14 03:35:36;;;;;;;183.73;56.90;;;;;;;;;;5071014;28;20933;-57
2023/08/14 03:38:02;;;;;;;184.17;57.60;;;;;;;;;;5071210;28;21108;-54
2023/08/14 03:40:30;;;;;;;183.30;57.27;;;;;;;;;;5070714;28;20449;-56
2023/08/14 03:42:56;;;;;;;185.70;58.97;;;;;;;;;;5070959;28;20483;-57
2023/08/14 03:45:22;;;;;;;182.70;56.87;;;;;;;;;;5071136;28;20992;-56
2023/08/14 03:47:48;;;;;;;185.67;59.43;;;;;;;;;;5070993;28;20793;-56
2023/08/14 03:50:14;;;;;;;184.60;57.37;;;;;;;;;;5070648;28;20428;-55
2023/08/14 03:52:39;;;;;;;183.83;58.40;;;;;;;;;;5070967;28;20432;-57
2023/08/14 03:55:05;;;;;;;183.27;56.70;;;;;;;;;;5070873;28;20421;-57
2023/08/14 03:57:31;;;;;;;186.70;59.40;;;;;;;;;;5070896;28;20408;-57
2023/08/14 03:59:57;;;;;;;186.60;59.73;;;;;;;;;;5074386;28;20895;-56
2023/08/14 04:02:23;;;;;;;183.47;58.03;;;;;;;;;;5074208;28;20967;-56
2023/08/14 04:04:49;;;;;;;182.67;57.47;;;;;;;;;;5074576;28;21035;-56
2023/08/14 04:07:15;;;;;;;182.17;56.07;;;;;;;;;;5074307;28;20922;-56
2023/08/14 04:09:41;;;;;;;184.40;58.20;;;;;;;;;;5074186;28;20540;-54
2023/08/14 04:12:09;;;;;;;182.43;57.83;;;;;;;;;;5074013;28;20780;-57
2023/08/14 04:14:35;;;;;;;183.87;57.27;;;;;;;;;;5074223;28;20923;-57
2023/08/14 04:17:01;;;;;;;184.77;57.97;;;;;;;;;;5074492;28;20410;-57
2023/08/14 04:19:27;;;;;;;182.70;56.87;;;;;;;;;;5074157;28;20418;-56
2023/08/14 04:21:53;;;;;;;185.07;61.57;;;;;;;;;;5073950;28;20467;-57
2023/08/14 04:24:19;;;;;;;186.20;61.00;;;;;;;;;;5074032;28;20494;-57
2023/08/14 04:26:45;;;;;;;185.00;59.93;;;;;;;;;;5073887;28;20404;-57
2023/08/14 04:29:11;;;;;;;184.57;59.87;;;;;;;;;;5074037;28;20415;-55
2023/08/14 04:31:37;;;;;;;182.20;57.00;;;;;;;;;;5073569;28;20433;-57
2023/08/14 04:34:04;;;;;;;183.77;58.43;;;;;;;;;;5071373;28;20444;-56
2023/08/14 04:36:33;;;;;;;186.50;60.70;;;;;;;;;;5080795;28;20422;-55
2023/08/14 04:38:59;;;;;;;182.57;58.60;;;;;;;;;;5074943;28;20861;-56
2023/08/14 04:41:26;;;;;;;186.87;60.47;;;;;;;;;;5073168;28;20549;-57
2023/08/14 04:43:52;;;;;;;182.67;56.60;;;;;;;;;;5073629;28;20420;-57
2023/08/14 04:46:30;;;;;;;186.73;60.80;;;;;;;;;;5073553;28;20404;-58
2023/08/14 04:48:56;;;;;;;187.47;61.37;;;;;;;;;;5073626;28;20905;-58
2023/08/14 04:51:22;;;;;;;184.43;57.47;;;;;;;;;;5081068;28;20453;-57
2023/08/14 04:53:48;;;;;;;186.30;60.00;;;;;;;;;;5073215;28;20447;-57
2023/08/14 04:56:14;;;;;;;182.73;56.27;;;;;;;;;;5073507;28;20429;-57
2023/08/14 04:58:40;;;;;;;183.53;59.53;;;;;;;;;;5073694;28;20525;-57
2023/08/14 05:01:06;;;;;;;185.63;60.00;;;;;;;;;;5072876;28;20482;-57
2023/08/14 05:03:32;;;;;;;184.23;58.50;;;;;;;;;;5073185;28;20415;-55
2023/08/14 05:05:58;;;;;;;184.30;59.33;;;;;;;;;;5073358;28;20398;-57
2023/08/14 05:08:24;;;;;;;188.27;62.90;;;;;;;;;;5073163;28;20949;-56
2023/08/14 05:10:51;;;;;;;185.77;60.17;;;;;;;;;;5073113;28;20438;-57
2023/08/14 05:13:17;;;;;;;183.30;57.73;;;;;;;;;;5072984;28;20456;-57
2023/08/14 05:15:43;;;;;;;182.80;58.20;;;;;;;;;;5072972;28;20411;-57
2023/08/14 05:18:09;;;;;;;182.43;56.60;;;;;;;;;;5073112;28;20419;-55
2023/08/14 05:20:35;;;;;;;190.00;63.80;;;;;;;;;;5072659;28;20479;-57
2023/08/14 05:23:01;;;;;;;186.13;60.47;;;;;;;;;;5072779;28;20527;-57
2023/08/14 05:25:26;;;;;;;186.93;62.87;;;;;;;;;;5072781;28;20447;-57
2023/08/14 05:27:52;;;;;;;184.17;57.60;;;;;;;;;;5072919;28;20440;-57
2023/08/14 05:30:18;;;;;;;183.97;58.23;;;;;;;;;;5072520;28;20487;-56
2023/08/14 05:32:46;;;;;;;182.43;56.87;;;;;;;;;;5072682;28;21001;-57
2023/08/14 05:35:12;;;;;;;183.53;57.90;;;;;;;;;;5072652;28;20902;-57
2023/08/14 05:37:40;;;;;;;185.70;58.70;;;;;;;;;;5072545;28;20402;-57
2023/08/14 05:40:06;;;;;;;184.93;61.07;;;;;;;;;;5072318;28;20441;-57
2023/08/14 05:42:32;;;;;;;184.20;58.23;;;;;;;;;;5072369;28;20432;-57
2023/08/14 05:44:58;;;;;;;183.90;60.10;;;;;;;;;;5072511;28;20410;-57
2023/08/14 05:47:24;;;;;;;181.90;56.50;;;;;;;;;;5072507;28;20414;-56
2023/08/14 05:49:50;;;;;;;189.17;62.10;;;;;;;;;;5072081;28;20503;-55
2023/08/14 05:52:16;;;;;;;183.77;59.10;;;;;;;;;;5072009;28;20441;-57
2023/08/14 05:54:42;;;;;;;185.97;61.20;;;;;;;;;;5072276;28;20417;-57
2023/08/14 05:57:08;;;;;;;183.80;57.87;;;;;;;;;;5071022;28;20520;-57
2023/08/14 05:59:34;;;;;;;187.37;61.47;;;;;;;;;;5072022;28;20442;-57
2023/08/14 06:02:00;;;;;;;184.30;58.67;;;;;;;;;;5071773;28;20512;-56
2023/08/14 06:04:26;;;;;;;184.50;59.97;;;;;;;;;;5072015;28;20405;-57
2023/08/14 06:06:53;;;;;;;184.50;58.67;;;;;;;;;;5071968;28;20436;-57
2023/08/14 06:09:19;;;;;;;186.67;60.47;;;;;;;;;;5072023;28;20448;-57
2023/08/14 06:11:45;;;;;;;184.17;58.23;;;;;;;;;;5071844;28;20432;-57
2023/08/14 06:14:11;;;;;;;184.47;58.20;;;;;;;;;;5071879;28;20417;-57
2023/08/14 06:16:37;;;;;;;184.60;57.60;;;;;;;;;;5072185;28;20416;-57
2023/08/14 06:19:03;;;;;;;186.17;59.93;;;;;;;;;;5071986;28;20421;-56
2023/08/14 06:21:29;;;;;;;186.37;59.87;;;;;;;;;;5071140;28;20459;-56
2023/08/14 06:23:55;;;;;;;186.57;60.33;;;;;;;;;;5071790;28;20759;-57
2023/08/14 06:26:21;;;;;;;184.93;58.97;;;;;;;;;;5071608;28;20455;-54
2023/08/14 06:28:47;;;;;;;184.93;58.77;;;;;;;;;;5071037;28;20415;-56
2023/08/14 06:31:13;;;;;;;184.87;59.47;;;;;;;;;;5071159;28;20444;-56
2023/08/14 06:33:39;;;;;;;184.90;58.27;;;;;;;;;;5071195;28;20908;-56
2023/08/14 06:36:05;;;;;;;186.67;60.17;;;;;;;;;;5071523;28;20788;-56
2023/08/14 06:38:31;;;;;;;185.80;59.57;;;;;;;;;;5071161;28;20429;-56
2023/08/14 06:40:57;;;;;;;188.80;63.20;;;;;;;;;;5070761;28;20457;-56
2023/08/14 06:43:23;;;;;;;184.07;58.47;;;;;;;;;;5071479;28;20431;-56
2023/08/14 06:45:49;;;;;;;187.53;61.37;;;;;;;;;;5071619;28;20930;-56
2023/08/14 06:48:15;;;;;;;185.23;58.77;;;;;;;;;;5071452;28;20932;-55
2023/08/14 06:50:41;;;;;;;188.47;63.87;;;;;;;;;;5071147;28;20787;-56
2023/08/14 06:53:07;;;;;;;188.23;63.60;;;;;;;;;;5071664;28;20430;-56
2023/08/14 06:55:33;;;;;;;186.97;60.77;;;;;;;;;;5071545;28;20423;-57
2023/08/14 06:57:59;;;;;;;184.90;60.43;;;;;;;;;;5071512;28;20465;-57
2023/08/14 07:00:25;;;;;;;184.67;59.20;;;;;;;;;;5071225;28;20501;-57
2023/08/14 07:02:50;;;;;;;186.87;61.47;;;;;;;;;;5071427;28;20437;-57
2023/08/14 07:05:17;;;;;;;187.27;62.63;;;;;;;;;;5071146;28;20416;-56
2023/08/14 07:07:43;;;;;;;187.40;60.80;;;;;;;;;;5071308;28;21022;-55
2023/08/14 07:10:09;;;;;;;189.30;65.80;;;;;;;;;;5067248;28;20506;-57
2023/08/14 07:12:35;;;;;;;187.60;62.37;;;;;;;;;;5065198;28;20935;-57
2023/08/14 07:15:01;;;;;;;183.30;58.77;;;;;;;;;;5071717;28;20415;-57
2023/08/14 07:17:27;;;;;;;191.07;66.47;;;;;;;;;;5071301;28;20442;-57
2023/08/14 07:19:53;;;;;;;196.53;68.93;;;;;;;;;;5067758;28;21894;-57
2023/08/14 07:22:19;;;;;;;187.87;63.13;;;;;;;;;;5071526;28;20472;-56
2023/08/14 07:24:45;;;;;;;185.87;62.10;;;;;;;;;;5071223;28;20411;-57
2023/08/14 07:27:11;;;;;;;188.70;62.90;;;;;;;;;;5071122;28;20461;-57
2023/08/14 07:29:37;;;;;;;187.53;62.93;;;;;;;;;;5070971;28;20768;-55
2023/08/14 07:32:03;;;;;;;190.17;64.97;;;;;;;;;;5070911;28;20443;-57
2023/08/14 07:34:29;;;;;;;189.67;64.67;;;;;;;;;;5074104;28;20476;-57
2023/08/14 07:36:55;;;;;;;185.77;61.87;;;;;;;;;;5074952;28;20419;-57
2023/08/14 07:39:24;;;;;;;189.13;63.53;;;;;;;;;;5078795;28;20777;-57
2023/08/14 07:41:50;;;;;;;188.10;64.47;;;;;;;;;;5074371;28;20945;-56
2023/08/14 07:44:16;;;;;;;187.47;62.87;;;;;;;;;;5074630;28;20396;-57
2023/08/14 07:46:43;;;;;;;189.27;65.27;;;;;;;;;;5074711;28;20529;-57
2023/08/14 07:49:09;;;;;;;188.77;65.17;;;;;;;;;;5074993;28;20553;-57
2023/08/14 07:51:34;;;;;;;187.60;63.30;;;;;;;;;;5074203;28;20812;-56
2023/08/14 07:54:01;;;;;;;188.40;66.30;;;;;;;;;;5074574;28;20415;-57
2023/08/14 07:56:26;;;;;;;188.87;63.77;;;;;;;;;;5074482;28;20492;-57
2023/08/14 07:58:52;;;;;;;187.07;63.87;;;;;;;;;;5074639;28;20507;-57
2023/08/14 08:01:18;;;;;;;190.77;65.17;;;;;;;;;;5073784;28;20471;-57
2023/08/14 08:03:44;;;;;;;187.93;65.83;;;;;;;;;;5074477;28;20412;-57
2023/08/14 08:06:10;;;;;;;187.53;64.33;;;;;;;;;;5074433;28;20405;-57
2023/08/14 08:08:36;;;;;;;187.57;63.33;;;;;;;;;;5070150;28;20412;-57
2023/08/14 08:11:02;;;;;;;187.80;63.80;;;;;;;;;;5054933;28;20517;-57
2023/08/14 08:13:28;;;;;;;187.90;64.63;;;;;;;;;;5065973;28;20408;-57
2023/08/14 08:15:54;;;;;;;190.37;66.00;;;;;;;;;;5077663;28;20924;-57
2023/08/14 08:18:20;;;;;;;192.20;65.77;;;;;;;;;;5072721;28;20420;-57
2023/08/14 08:20:46;;;;;;;191.07;67.97;;;;;;;;;;5073634;28;20452;-57
2023/08/14 08:23:12;;;;;;;192.73;68.57;;;;;;;;;;5073280;28;20898;-57
2023/08/14 08:25:38;;;;;;;188.47;66.20;;;;;;;;;;5073235;28;20495;-57
2023/08/14 08:28:04;;;;;;;193.27;69.27;;;;;;;;;;5072965;28;20416;-55
2023/08/14 08:30:30;;;;;;;191.97;68.10;;;;;;;;;;5073503;28;20440;-57
2023/08/14 08:32:56;;;;;;;188.77;67.00;;;;;;;;;;5073768;28;20497;-56
2023/08/14 08:35:22;;;;;;;189.23;66.63;;;;;;;;;;5073971;28;21030;-57
2023/08/14 08:37:48;;;;;;;188.40;66.83;;;;;;;;;;5073978;28;20926;-57
2023/08/14 08:40:14;;;;;;;190.33;67.87;;;;;;;;;;5073895;28;20420;-57
2023/08/14 08:42:41;;;;;;;189.37;67.40;;;;;;;;;;5073771;28;20432;-56
2023/08/14 08:45:08;;;;;;;192.33;69.70;;;;;;;;;;5073197;28;20407;-57
2023/08/14 08:47:36;;;;;;;190.23;67.03;;;;;;;;;;5073867;28;20426;-56
2023/08/14 08:50:02;;;;;;;193.30;72.23;;;;;;;;;;5073398;28;20455;-57
2023/08/14 08:52:28;;;;;;;191.03;70.47;;;;;;;;;;5073580;28;20432;-56
2023/08/14 08:54:54;;;;;;;192.57;73.23;;;;;;;;;;5073494;28;20417;-58
2023/08/14 08:57:21;;;;;;;189.50;67.77;;;;;;;;;;5073526;28;20421;-57
2023/08/14 08:59:48;;;;;;;196.73;74.87;;;;;;;;;;5073044;28;20408;-57
2023/08/14 09:02:14;;;;;;;189.80;69.77;;;;;;;;;;5073286;28;20489;-57
2023/08/14 09:04:40;;;;;;;189.50;71.23;;;;;;;;;;5073513;28;20412;-56
2023/08/14 09:07:06;;;;;;;189.80;71.23;;;;;;;;;;5073483;28;20466;-57
2023/08/14 09:09:32;;;;;;;193.23;74.97;;;;;;;;;;5076426;28;20416;-57
2023/08/14 09:11:58;;;;;;;191.07;72.83;;;;;;;;;;5072971;28;20440;-57
2023/08/14 09:14:24;;;;;;;204.30;86.73;;;;;;;;;;5070445;28;20421;-57
2023/08/14 09:16:54;;;;;;;192.37;77.10;;;;;;;;;;5063455;28;20400;-56
2023/08/14 09:19:22;;;;;;;195.50;75.57;;;;;;;;;;5072835;28;20405;-56
2023/08/14 09:21:48;;;;;;;195.07;75.80;;;;;;;;;;5070788;28;20460;-58
2023/08/14 09:24:17;;;;;;;196.67;77.37;;;;;;;;;;5071016;28;20404;-57
2023/08/14 09:26:43;;;;;;;195.00;77.57;;;;;;;;;;5071738;28;20424;-57
2023/08/14 09:29:10;;;;;;;194.07;76.70;;;;;;;;;;5071888;28;20412;-58
2023/08/14 09:31:36;;;;;;;193.80;76.73;;;;;;;;;;5071698;28;20428;-56
2023/08/14 09:34:02;;;;;;;194.80;78.47;;;;;;;;;;5071712;28;20775;-58
2023/08/14 09:36:34;;;;;;;190.93;74.50;;;;;;;;;;5072613;28;20747;-57
2023/08/14 09:39:00;;;;;;;195.17;78.47;;;;;;;;;;5072062;28;20412;-58
2023/08/14 09:41:27;;;;;;;191.77;74.90;;;;;;;;;;5070811;28;20830;-57
2023/08/14 09:43:53;;;;;;;190.27;75.27;;;;;;;;;;5072532;28;20409;-57
2023/08/14 09:46:19;;;;;;;191.63;78.00;;;;;;;;;;5072518;28;20955;-57
2023/08/14 09:48:47;;;;;;;190.73;75.87;;;;;;;;;;5072514;28;20404;-57
2023/08/14 09:51:16;;;;;;;188.27;73.73;;;;;;;;;;5071856;28;20896;-57
2023/08/14 09:53:44;;;;;;;190.43;76.63;;;;;;;;;;5064469;28;20425;-57
2023/08/14 09:56:10;;;;;;;189.63;75.77;;;;;;;;;;5071705;28;20442;-58
2023/08/14 09:58:36;;;;;;;191.70;80.10;;;;;;;;;;5072124;28;20888;-57
2023/08/14 10:01:02;;;;;;;192.23;77.83;;;;;;;;;;5071863;28;20513;-57
2023/08/14 10:03:29;;;;;;;190.93;77.70;;;;;;;;;;5072113;28;20415;-57
2023/08/14 10:05:55;;;;;;;191.63;77.80;;;;;;;;;;5072189;28;20800;-57
2023/08/14 10:08:21;;;;;;;190.67;77.93;;;;;;;;;;5071916;28;20416;-56
2023/08/14 10:10:47;;;;;;;194.53;80.80;;;;;;;;;;5071955;28;20416;-58
2023/08/14 10:13:13;;;;;;;193.17;78.80;;;;;;;;;;5072129;28;20562;-57
2023/08/14 10:15:42;;;;;;;191.77;79.30;;;;;;;;;;5063887;28;20450;-58
2023/08/14 10:18:16;;;;;;;190.70;79.10;;;;;;;;;;5072235;28;20409;-57
2023/08/14 10:20:43;;;;;;;192.07;78.70;;;;;;;;;;5071645;28;20525;-57
2023/08/14 10:23:09;;;;;;;191.30;79.87;;;;;;;;;;5071706;28;20416;-57
2023/08/14 10:25:38;;;;;;;192.77;81.17;;;;;;;;;;5071743;28;20771;-57
2023/08/14 10:28:07;;;;;;;190.13;79.00;;;;;;;;;;5071810;28;20443;-56
2023/08/14 10:30:34;;;;;;;191.30;79.67;;;;;;;;;;5071428;28;20451;-57
2023/08/14 10:33:02;;;;;;;191.63;80.83;;;;;;;;;;5071785;28;20448;-57
2023/08/14 10:35:28;;;;;;;194.10;83.03;;;;;;;;;;5071445;28;20411;-56
2023/08/14 10:37:54;;;;;;;187.77;76.93;;;;;;;;;;5071696;28;20400;-57
2023/08/14 10:40:21;;;;;;;188.77;77.80;;;;;;;;;;5071569;28;20439;-57
2023/08/14 10:42:53;;;;;;;190.97;81.00;;;;;;;;;;5071515;28;20492;-57
2023/08/14 10:45:23;;;;;;;192.73;82.53;;;;;;;;;;5071534;28;20495;-57
2023/08/14 10:47:50;;;;;;;191.00;81.20;;;;;;;;;;5071548;28;20435;-57
2023/08/14 10:50:18;;;;;;;190.87;81.23;;;;;;;;;;5071224;28;20432;-53
2023/08/14 10:52:45;;;;;;;188.33;79.00;;;;;;;;;;5071404;28;20516;-53
2023/08/14 10:55:18;;;;;;;189.67;79.33;;;;;;;;;;5071459;28;20809;-54
2023/08/14 10:57:45;;;;;;;189.43;80.83;;;;;;;;;;5063834;28;20415;-54
2023/08/14 11:00:24;;;;;;;191.23;82.50;;;;;;;;;;5071189;28;20801;-53
2023/08/14 11:03:06;;;;;;;192.57;80.50;;;;;;;;;;5064725;28;20493;-53
2023/08/14 11:05:36;;;;;;;192.10;79.93;;;;;;;;;;5070566;28;20778;-55
2023/08/14 11:08:02;;;;;;;190.57;76.60;;;;;;;;;;5074449;28;20416;-54
2023/08/14 11:10:28;;;;;;;191.73;78.60;;;;;;;;;;5075316;28;20403;-55
2023/08/14 11:12:57;;;;;;;191.77;76.97;;;;;;;;;;5075417;28;20782;-56
2023/08/14 11:15:23;;;;;;;190.30;76.20;;;;;;;;;;5075343;28;20407;-55
2023/08/14 11:17:49;;;;;;;191.20;76.90;;;;;;;;;;5075766;28;20492;-56
2023/08/14 11:20:16;;;;;;;190.77;76.10;;;;;;;;;;5075382;28;20440;-56
2023/08/14 11:22:45;;;;;;;191.07;75.87;;;;;;;;;;5075064;28;20463;-54
2023/08/14 11:25:17;;;;;;;189.33;74.07;;;;;;;;;;5075320;28;20911;-53
2023/08/14 11:27:48;;;;;;;192.23;76.17;;;;;;;;;;5074461;28;20416;-54
2023/08/14 11:30:14;;;;;;;190.10;75.07;;;;;;;;;;5074943;28;20469;-55
2023/08/14 11:32:40;;;;;;;190.87;77.27;;;;;;;;;;5075059;28;20834;-53
2023/08/14 11:35:06;;;;;;;191.70;77.60;;;;;;;;;;5075053;28;20455;-53
2023/08/14 11:37:32;;;;;;;191.77;79.10;;;;;;;;;;5074876;28;20423;-57
2023/08/14 11:40:05;;;;;;;190.60;76.57;;;;;;;;;;5074859;28;20416;-58
2023/08/14 11:42:34;;;;;;;189.20;75.47;;;;;;;;;;5074869;28;20471;-58
2023/08/14 11:45:04;;;;;;;192.00;77.43;;;;;;;;;;5074792;28;20404;-58
2023/08/14 11:47:33;;;;;;;192.60;78.73;;;;;;;;;;5074816;28;20400;-58
2023/08/14 11:49:59;;;;;;;191.23;76.60;;;;;;;;;;5073017;28;20770;-58
2023/08/14 11:52:26;;;;;;;191.10;77.70;;;;;;;;;;5059410;28;20929;-58
2023/08/14 11:54:52;;;;;;;189.03;74.80;;;;;;;;;;5054557;28;20508;-56
2023/08/14 11:57:18;;;;;;;189.73;74.67;;;;;;;;;;5054683;28;20466;-57
2023/08/14 11:59:45;;;;;;;193.23;81.47;;;;;;;;;;5060725;28;20420;-58
2023/08/14 12:02:11;;;;;;;187.17;74.57;;;;;;;;;;5074725;28;20474;-58
2023/08/14 12:04:40;;;;;;;190.03;78.10;;;;;;;;;;5074408;28;20400;-57
2023/08/14 12:07:10;;;;;;;190.40;77.80;;;;;;;;;;5074422;28;20403;-58
2023/08/14 12:09:38;;;;;;;190.17;79.83;;;;;;;;;;5074346;28;20412;-57
2023/08/14 12:12:05;;;;;;;189.70;78.30;;;;;;;;;;5074310;28;20918;-58
2023/08/14 12:14:41;;;;;;;189.97;78.47;;;;;;;;;;5074281;28;20421;-58
2023/08/14 12:17:11;;;;;;;189.93;80.37;;;;;;;;;;5081811;28;20413;-58
2023/08/14 12:19:40;;;;;;;189.67;79.53;;;;;;;;;;5083692;28;20448;-58
2023/08/14 12:22:06;;;;;;;195.03;82.50;;;;;;;;;;5072395;28;20468;-57
2023/08/14 12:24:38;;;;;;;193.70;84.10;;;;;;;;;;5072681;28;20412;-58
2023/08/14 12:27:05;;;;;;;191.77;80.23;;;;;;;;;;5074097;28;20756;-58
2023/08/14 12:29:31;;;;;;;193.67;82.27;;;;;;;;;;5073495;28;20502;-58
2023/08/14 12:31:59;;;;;;;189.40;82.27;;;;;;;;;;5072513;28;20444;-58
2023/08/14 12:34:25;;;;;;;193.73;82.70;;;;;;;;;;5073787;28;20412;-58
2023/08/14 12:36:51;;;;;;;189.83;80.13;;;;;;;;;;5073901;28;20503;-58
2023/08/14 12:39:17;;;;;;;189.93;83.10;;;;;;;;;;5073789;28;20463;-58
2023/08/14 12:41:43;;;;;;;188.47;80.30;;;;;;;;;;5073639;28;20472;-58
2023/08/14 12:44:09;;;;;;;189.97;80.30;;;;;;;;;;5073751;28;20422;-58
2023/08/14 12:46:35;;;;;;;188.80;80.73;;;;;;;;;;5073702;28;20408;-58
2023/08/14 12:49:01;;;;;;;188.90;80.47;;;;;;;;;;5073617;28;20404;-57
2023/08/14 12:51:27;;;;;;;190.60;85.10;;;;;;;;;;5073239;28;20501;-59
2023/08/14 12:53:53;;;;;;;191.73;82.93;;;;;;;;;;5073569;28;20490;-58
2023/08/14 12:56:19;;;;;;;191.63;83.50;;;;;;;;;;5073536;28;20421;-58
2023/08/14 12:58:45;;;;;;;196.00;88.00;;;;;;;;;;5070791;28;20419;-58
2023/08/14 13:01:10;;;;;;;188.70;80.30;;;;;;;;;;5064632;28;20979;-58
2023/08/14 13:03:36;;;;;;;191.50;83.07;;;;;;;;;;5067960;28;20496;-58
2023/08/14 13:06:02;;;;;;;189.73;81.83;;;;;;;;;;5068159;28;20461;-56
2023/08/14 13:08:28;;;;;;;190.60;81.90;;;;;;;;;;5073290;28;20519;-57
2023/08/14 13:10:54;;;;;;;189.87;82.23;;;;;;;;;;5072993;28;20513;-58
2023/08/14 13:13:23;;;;;;;192.20;82.27;;;;;;;;;;5073288;28;20415;-58
2023/08/14 13:15:49;;;;;;;190.80;79.70;;;;;;;;;;5073430;28;20440;-58
2023/08/14 13:18:15;;;;;;;190.27;79.40;;;;;;;;;;5068516;28;20459;-57
2023/08/14 13:20:41;;;;;;;192.83;79.83;;;;;;;;;;5072606;28;20447;-58
2023/08/14 13:23:07;;;;;;;192.77;79.90;;;;;;;;;;5072998;28;20412;-58
2023/08/14 13:25:33;;;;;;;192.63;78.37;;;;;;;;;;5072528;28;20408;-58
2023/08/14 13:27:59;;;;;;;195.13;79.70;;;;;;;;;;5071133;28;20416;-58
2023/08/14 13:30:25;;;;;;;191.63;78.23;;;;;;;;;;5067956;28;20495;-57
2023/08/14 13:32:51;;;;;;;193.90;80.20;;;;;;;;;;5072344;28;20565;-57
2023/08/14 13:35:17;;;;;;;188.77;76.93;;;;;;;;;;5071702;28;20943;-58
2023/08/14 13:37:43;;;;;;;189.77;78.30;;;;;;;;;;5072778;28;20507;-57
2023/08/14 13:40:09;;;;;;;191.27;80.73;;;;;;;;;;5072556;28;20943;-58
2023/08/14 13:42:35;;;;;;;191.20;81.60;;;;;;;;;;5072421;28;20456;-58
2023/08/14 13:45:01;;;;;;;191.47;82.30;;;;;;;;;;5072374;28;20449;-58
2023/08/14 13:47:27;;;;;;;193.33;83.97;;;;;;;;;;5072494;28;20440;-58
2023/08/14 13:49:53;;;;;;;196.77;87.00;;;;;;;;;;5067021;28;20889;-58
2023/08/14 13:52:19;;;;;;;190.50;82.93;;;;;;;;;;5072338;28;20943;-58
2023/08/14 13:54:46;;;;;;;191.37;83.93;;;;;;;;;;5072371;28;20827;-58
2023/08/14 13:57:12;;;;;;;191.90;85.37;;;;;;;;;;5072344;28;20499;-57
2023/08/14 13:59:38;;;;;;;192.50;85.27;;;;;;;;;;5071982;28;20466;-58